createdAt,value
2023-02-18T00:01:59.838Z,0.90
2023-02-18T00:07:24.374Z,0.40
2023-02-18T00:12:48.311Z,0.30
2023-02-18T00:18:12.512Z,1.10
2023-02-18T00:23:37.211Z,0.60
2023-02-18T00:29:01.057Z,0.80
2023-02-18T00:34:25.498Z,0.60
2023-02-18T00:39:49.896Z,0.60
2023-02-18T00:45:15.149Z,0.70
2023-02-18T00:50:40.038Z,1.50
2023-02-18T00:56:05.155Z,0.90
2023-02-18T01:01:29.438Z,0.50
2023-02-18T01:06:53.357Z,0.40
2023-02-18T01:12:18.381Z,0.80
2023-02-18T01:17:43.585Z,0.40
2023-02-18T01:23:09.168Z,0.90
2023-02-18T01:28:34.462Z,0.80
2023-02-18T01:33:58.535Z,0.60
2023-02-18T01:39:25.633Z,0.90
2023-02-18T01:44:49.962Z,0.60
2023-02-18T01:50:14.902Z,0.40
2023-02-18T01:55:39.723Z,0.70
2023-02-18T02:01:05.393Z,0.40
2023-02-18T02:06:29.545Z,1.60
2023-02-18T02:12:31.161Z,0.40
2023-02-18T02:18:12.421Z,0.60
2023-02-18T02:24:10.436Z,0.50
2023-02-18T02:29:50.613Z,0.70
2023-02-18T02:35:21.262Z,0.40
2023-02-18T02:41:06.750Z,0.30
2023-02-18T02:46:41.482Z,0.60
2023-02-18T02:52:29.050Z,0.60
2023-02-18T02:57:56.615Z,0.90
2023-02-18T03:04:03.318Z,0.70
2023-02-18T03:10:00.864Z,0.80
2023-02-18T03:15:39.958Z,1.50
2023-02-18T03:21:15.912Z,0.50
2023-02-18T03:26:46.452Z,0.60
2023-02-18T03:32:16.463Z,0.50
2023-02-18T03:37:48.429Z,0.40
2023-02-18T03:43:12.800Z,0.60
2023-02-18T03:48:37.370Z,0.40
2023-02-18T03:54:01.571Z,0.40
2023-02-18T03:59:26.153Z,0.40
2023-02-18T04:04:50.280Z,0.40
2023-02-18T04:10:15.015Z,1.30
2023-02-18T04:15:39.724Z,0.60
2023-02-18T04:21:03.536Z,0.40
2023-02-18T04:26:27.857Z,0.40
2023-02-18T04:31:52.565Z,0.50
2023-02-18T04:37:17.321Z,0.70
2023-02-18T04:42:42.228Z,0.70
2023-02-18T04:48:07.069Z,0.40
2023-02-18T04:53:31.081Z,0.60
2023-02-18T04:58:55.091Z,0.50
2023-02-18T05:04:19.936Z,0.60
2023-02-18T05:09:44.798Z,0.30
2023-02-18T05:15:10.737Z,1.30
2023-02-18T05:20:36.077Z,0.50
2023-02-18T05:26:00.197Z,1.00
2023-02-18T05:31:24.551Z,0.70
2023-02-18T05:36:49.221Z,0.40
2023-02-18T05:42:14.195Z,1.50
2023-02-18T05:47:39.161Z,0.50
2023-02-18T05:53:03.386Z,0.30
2023-02-18T05:58:28.109Z,0.40
2023-02-18T06:03:52.428Z,0.40
2023-02-18T06:09:16.788Z,1.00
2023-02-18T06:14:42.553Z,0.30
2023-02-18T06:20:08.211Z,0.40
2023-02-18T06:25:32.940Z,0.90
2023-02-18T06:30:57.168Z,0.50
2023-02-18T06:36:21.624Z,0.70
2023-02-18T06:41:45.639Z,0.50
2023-02-18T06:47:10.202Z,0.60
2023-02-18T06:52:34.939Z,0.50
2023-02-18T06:57:59.508Z,0.40
2023-02-18T07:03:23.356Z,0.60
2023-02-18T07:08:47.577Z,0.30
2023-02-18T07:14:11.946Z,0.50
2023-02-18T07:19:36.071Z,0.60
2023-02-18T07:25:36.188Z,0.60
2023-02-18T07:32:18.573Z,0.70
2023-02-18T07:37:58.160Z,0.60
2023-02-18T07:43:58.277Z,0.70
2023-02-18T07:49:58.023Z,0.60
2023-02-18T07:55:22.675Z,0.40
2023-02-18T08:01:22.110Z,0.70
2023-02-18T08:07:23.275Z,0.40
2023-02-18T08:13:22.339Z,0.80
2023-02-18T08:19:21.870Z,1.20
2023-02-18T08:25:29.436Z,1.00
2023-02-18T08:30:54.999Z,0.70
2023-02-18T08:36:20.012Z,0.50
2023-02-18T08:41:45.013Z,0.50
2023-02-18T08:48:16.258Z,0.60
2023-02-18T08:52:54.137Z,1.20
2023-02-18T08:58:18.564Z,0.90
2023-02-18T09:03:42.786Z,0.70
2023-02-18T09:09:07.529Z,0.70
2023-02-18T09:14:32.167Z,0.70
2023-02-18T09:19:56.420Z,1.00
2023-02-18T09:25:20.371Z,1.80
2023-02-18T09:30:45.924Z,2.00
2023-02-18T09:36:10.070Z,1.50
2023-02-18T09:41:50.226Z,1.20
2023-02-18T09:47:36.707Z,1.90
2023-02-18T09:53:03.535Z,2.40
2023-02-18T09:58:32.930Z,2.00
2023-02-18T10:04:08.431Z,2.10
2023-02-18T10:09:36.628Z,2.20
2023-02-18T10:15:02.973Z,3.30
2023-02-18T10:20:30.866Z,1.90
2023-02-18T10:25:57.622Z,2.90
2023-02-18T10:31:37.925Z,1.70
2023-02-18T10:37:47.909Z,1.80
2023-02-18T10:43:24.390Z,3.10
2023-02-18T10:48:59.913Z,2.70
2023-02-18T10:54:27.356Z,2.60
2023-02-18T11:00:16.176Z,2.70
2023-02-18T11:05:42.062Z,3.50
2023-02-18T11:11:31.249Z,2.60
2023-02-18T11:17:07.963Z,5.30
2023-02-18T11:22:37.455Z,5.00
2023-02-18T11:28:09.070Z,6.60
2023-02-18T11:33:38.538Z,3.70
2023-02-18T11:39:17.907Z,3.20
2023-02-18T11:45:00.103Z,2.30
2023-02-18T11:50:25.812Z,2.50
2023-02-18T11:55:57.006Z,2.70
2023-02-18T12:01:46.980Z,3.00
2023-02-18T12:07:19.505Z,3.50
2023-02-18T12:12:55.737Z,3.30
2023-02-18T12:25:28.201Z,3.40
2023-02-18T12:31:31.470Z,6.40
2023-02-18T12:37:58.985Z,5.50
2023-02-18T12:44:10.777Z,2.20
2023-02-18T12:50:28.049Z,4.10
2023-02-18T12:55:57.693Z,3.70
2023-02-18T13:01:38.825Z,2.80
2023-02-18T13:07:31.840Z,2.20
2023-02-18T13:13:25.288Z,3.30
2023-02-18T13:19:35.910Z,4.40
2023-02-18T13:25:00.749Z,4.50
2023-02-18T13:30:37.101Z,6.60
2023-02-18T13:36:08.016Z,4.50
2023-02-18T13:41:42.202Z,4.30
2023-02-18T13:47:09.921Z,2.40
2023-02-18T13:52:34.556Z,1.00
2023-02-18T13:58:00.724Z,1.00
2023-02-18T14:03:30.993Z,1.40
2023-02-18T14:09:13.558Z,0.80
2023-02-18T14:14:39.116Z,0.60
2023-02-18T14:20:03.097Z,0.40
2023-02-18T14:25:42.424Z,0.70
2023-02-18T14:31:12.859Z,0.90
2023-02-18T14:36:58.270Z,0.60
2023-02-18T14:42:33.015Z,0.70
2023-02-18T14:48:36.144Z,0.50
2023-02-18T14:59:57.681Z,0.70
2023-02-18T15:05:27.471Z,0.70
2023-02-18T15:11:03.565Z,0.70
2023-02-18T15:16:34.094Z,1.00
2023-02-18T15:21:59.043Z,0.70
2023-02-18T15:27:35.883Z,1.10
2023-02-18T15:33:01.467Z,0.80
2023-02-18T15:38:32.861Z,1.10
2023-02-18T15:44:04.769Z,0.70
2023-02-18T15:49:30.954Z,0.70
2023-02-18T15:55:01.189Z,0.60
2023-02-18T16:00:33.523Z,0.70
2023-02-18T16:11:43.646Z,0.70
2023-02-18T16:17:13.511Z,0.50
2023-02-18T16:22:45.265Z,1.10
2023-02-18T16:28:46.583Z,0.60
2023-02-18T16:34:49.102Z,0.40
2023-02-18T16:40:49.821Z,0.60
2023-02-18T16:46:50.018Z,1.10
2023-02-18T16:52:17.567Z,1.10
2023-02-18T16:57:41.965Z,0.80
2023-02-18T17:03:07.199Z,0.70
2023-02-18T17:08:31.515Z,0.60
2023-02-18T17:13:58.482Z,1.00
2023-02-18T17:19:49.832Z,1.00
2023-02-18T17:25:38.758Z,0.40
2023-02-18T17:31:26.651Z,0.70
2023-02-18T17:37:17.642Z,0.70
2023-02-18T17:42:58.559Z,0.60
2023-02-18T17:48:24.131Z,0.60
2023-02-18T17:53:49.339Z,0.50
2023-02-18T17:59:14.203Z,0.90
2023-02-18T18:04:38.296Z,1.10
2023-02-18T18:10:04.501Z,0.90
2023-02-18T18:15:37.075Z,1.00
2023-02-18T18:21:02.099Z,0.80
2023-02-18T18:26:26.833Z,0.80
2023-02-18T18:31:51.069Z,1.00
2023-02-18T18:37:15.524Z,1.90
2023-02-18T18:42:40.984Z,1.30
2023-02-18T18:48:09.406Z,1.00
2023-02-18T18:53:41.738Z,0.70
2023-02-18T18:59:12.205Z,1.00
2023-02-18T19:04:41.153Z,1.30
2023-02-18T19:10:22.405Z,0.60
2023-02-18T19:16:14.194Z,0.90
2023-02-18T19:21:52.904Z,1.00
2023-02-18T19:27:45.471Z,1.40
2023-02-18T19:33:37.652Z,1.30
2023-02-18T19:39:07.349Z,1.20
2023-02-18T19:44:38.705Z,1.80
2023-02-18T19:50:25.572Z,1.60
2023-02-18T19:56:11.157Z,1.00
2023-02-18T20:01:49.359Z,1.30
2023-02-18T20:07:27.364Z,1.50
2023-02-18T20:13:00.646Z,1.60
2023-02-18T20:18:33.222Z,0.90
2023-02-18T20:24:20.380Z,0.70
2023-02-18T20:29:59.796Z,0.60
2023-02-18T20:35:35.155Z,0.30
2023-02-18T20:41:19.313Z,0.50
2023-02-18T20:46:59.941Z,0.40
2023-02-18T20:52:40.161Z,1.00
2023-02-18T20:58:17.909Z,0.50
2023-02-18T21:03:43.981Z,0.40
2023-02-18T21:09:09.861Z,1.00
2023-02-18T21:14:35.357Z,0.60
2023-02-18T21:20:01.241Z,0.50
2023-02-18T21:25:26.252Z,0.50
2023-02-18T21:30:51.591Z,0.50
2023-02-18T21:36:17.013Z,0.60
2023-02-18T21:41:41.628Z,0.50
2023-02-18T21:47:06.555Z,0.50
2023-02-18T21:52:32.632Z,0.60
2023-02-18T21:57:58.054Z,0.40
2023-02-18T22:03:23.514Z,0.50
2023-02-18T22:08:49.113Z,0.40
2023-02-18T22:14:15.641Z,0.40
2023-02-18T22:19:40.376Z,0.50
2023-02-18T22:25:05.987Z,0.60
2023-02-18T22:30:30.397Z,0.60
2023-02-18T22:35:55.325Z,0.90
2023-02-18T22:41:16.294Z,0.40
2023-02-18T22:46:41.363Z,0.50
2023-02-18T22:52:05.849Z,0.60
2023-02-18T22:57:30.160Z,0.70
2023-02-18T23:02:55.200Z,0.30
2023-02-18T23:08:19.889Z,0.80
2023-02-18T23:13:44.595Z,1.00
2023-02-18T23:19:09.032Z,1.70
2023-02-18T23:24:38.343Z,2.10
2023-02-18T23:30:02.612Z,1.70
2023-02-18T23:35:26.867Z,1.30
2023-02-18T23:40:51.957Z,0.70
2023-02-18T23:46:17.965Z,0.80
2023-02-18T23:51:43.366Z,0.80
2023-02-18T23:57:07.564Z,1.00
